Time;durP1;ratioP1;P1;durP2;ratioP2;P2;SDS_P1;SDS_P2;PMS_P1;PMS_P2;Temp;Humidity;BMP_temperature;BMP_pressure;BME280_temperature;BME280_humidity;BME280_pressure;Samples;Min_cycle;Max_cycle;Signal;HPM_P1;HPM_P2
2023/01/27 00:00:54;;;;;;;7.43;1.50;;;6.70;88.30;;;;;;5092973;28;20039;-77
2023/01/27 00:03:20;;;;;;;5.13;1.83;;;6.70;88.40;;;;;;5059150;28;20044;-78
2023/01/27 00:05:46;;;;;;;4.30;1.92;;;6.70;88.10;;;;;;5093442;28;20047;-77
2023/01/27 00:08:12;;;;;;;3.83;1.33;;;6.70;88.60;;;;;;5075581;28;20021;-77
2023/01/27 00:10:38;;;;;;;5.85;1.50;;;6.70;88.90;;;;;;5093386;28;20044;-77
2023/01/27 00:15:48;;;;;;;5.95;1.65;;;6.70;88.70;;;;;;5093590;28;20097;-77
2023/01/27 00:18:14;;;;;;;6.18;1.63;;;6.70;88.80;;;;;;5075575;28;20036;-78
2023/01/27 00:26:16;;;;;;;6.15;1.73;;;6.70;89.00;;;;;;5093514;28;20168;-77
2023/01/27 00:28:43;;;;;;;8.13;1.85;;;6.70;89.10;;;;;;5093231;28;20090;-77
2023/01/27 00:34:00;;;;;;;5.00;2.30;;;6.70;89.10;;;;;;5093468;28;20039;-77
2023/01/27 00:36:27;;;;;;;8.65;2.10;;;6.70;89.30;;;;;;5075072;28;20041;-77
2023/01/27 00:38:52;;;;;;;11.30;2.05;;;6.70;89.30;;;;;;5093012;28;20025;-77
2023/01/27 00:41:18;;;;;;;7.03;2.13;;;6.70;89.30;;;;;;5093191;28;20084;-77
2023/01/27 00:43:45;;;;;;;7.35;1.90;;;6.70;89.20;;;;;;5093050;28;20035;-77
2023/01/27 00:46:11;;;;;;;5.70;1.95;;;6.70;89.20;;;;;;5093046;28;20112;-77
2023/01/27 00:48:37;;;;;;;3.40;1.77;;;6.70;89.10;;;;;;5075328;28;20037;-77
2023/01/27 00:51:03;;;;;;;7.38;2.22;;;6.70;89.00;;;;;;5092990;28;20027;-77
2023/01/27 00:53:29;;;;;;;6.13;2.13;;;6.70;89.00;;;;;;5092946;28;20056;-77
2023/01/27 00:55:57;;;;;;;5.88;2.03;;;6.60;88.80;;;;;;5075242;28;20079;-77
2023/01/27 00:58:25;;;;;;;8.40;1.92;;;6.60;88.90;;;;;;5075476;28;20028;-77
2023/01/27 01:00:55;;;;;;;5.32;2.17;;;6.70;89.10;;;;;;5075252;28;20025;-77
2023/01/27 01:03:21;;;;;;;9.95;2.63;;;6.60;89.00;;;;;;5092930;28;20020;-77
2023/01/27 01:05:48;;;;;;;5.90;1.98;;;6.70;89.10;;;;;;5092870;28;20028;-77
2023/01/27 01:08:14;;;;;;;5.25;1.92;;;6.60;89.00;;;;;;5092741;28;20029;-78
2023/01/27 01:10:39;;;;;;;6.43;2.30;;;6.60;89.10;;;;;;5092814;28;20067;-77
2023/01/27 01:13:06;;;;;;;6.50;2.10;;;6.60;88.90;;;;;;5095518;28;20036;-77
2023/01/27 01:15:36;;;;;;;10.30;2.25;;;6.60;89.10;;;;;;5096548;28;20032;-77
2023/01/27 01:18:03;;;;;;;5.38;2.00;;;6.60;89.20;;;;;;5078625;28;20033;-77
2023/01/27 01:20:29;;;;;;;8.30;2.20;;;6.60;88.90;;;;;;5096426;28;20491;-77
2023/01/27 01:22:56;;;;;;;7.68;2.42;;;6.60;89.20;;;;;;5096389;28;20049;-77
2023/01/27 01:25:21;;;;;;;5.80;2.40;;;6.60;88.90;;;;;;5078573;28;20032;-78
2023/01/27 01:27:47;;;;;;;4.85;2.25;;;6.60;89.20;;;;;;5096321;28;20025;-77
2023/01/27 01:30:13;;;;;;;5.40;2.70;;;6.60;89.10;;;;;;5078530;28;20032;-77
2023/01/27 01:32:38;;;;;;;6.40;2.10;;;6.50;88.40;;;;;;5061823;28;20032;-77
2023/01/27 01:35:05;;;;;;;8.18;2.78;;;6.50;88.40;;;;;;5095880;28;20064;-76
2023/01/27 01:37:30;;;;;;;7.65;2.60;;;6.50;88.60;;;;;;5096143;28;20040;-77
2023/01/27 01:39:56;;;;;;;11.75;2.55;;;6.50;88.40;;;;;;5096018;28;20040;-77
2023/01/27 01:42:21;;;;;;;7.50;2.70;;;6.50;88.30;;;;;;5096062;28;20056;-77
2023/01/27 01:45:10;;;;;;;10.45;2.63;;;6.50;88.10;;;;;;5078370;28;20032;-77
2023/01/27 01:47:36;;;;;;;5.05;2.08;;;6.50;88.30;;;;;;5095713;28;20032;-77
2023/01/27 01:50:02;;;;;;;6.45;2.50;;;6.40;88.10;;;;;;5078233;28;20088;-77
2023/01/27 01:52:29;;;;;;;7.32;2.30;;;6.40;87.90;;;;;;5078339;28;20059;-77
2023/01/27 01:54:55;;;;;;;7.10;2.38;;;6.40;88.40;;;;;;5095832;28;20084;-77
2023/01/27 01:57:33;;;;;;;5.10;2.28;;;6.40;88.30;;;;;;5078060;28;20027;-77
2023/01/27 02:00:08;;;;;;;6.75;2.55;;;6.40;88.50;;;;;;5095684;28;20052;-77
2023/01/27 02:02:35;;;;;;;9.93;2.30;;;6.40;88.50;;;;;;5078568;28;20024;-77
2023/01/27 02:05:12;;;;;;;4.93;2.38;;;6.40;88.30;;;;;;5061432;28;20021;-77
2023/01/27 02:07:48;;;;;;;7.80;2.25;;;6.30;87.50;;;;;;5077778;28;20141;-77
2023/01/27 02:10:14;;;;;;;5.40;2.80;;;6.30;87.20;;;;;;5095689;28;20024;-77
2023/01/27 02:12:40;;;;;;;10.05;2.75;;;6.30;87.50;;;;;;5095496;28;20025;-78
2023/01/27 02:15:07;;;;;;;4.95;2.22;;;6.30;87.70;;;;;;5077872;28;20025;-77
2023/01/27 02:17:33;;;;;;;8.23;2.80;;;6.20;87.70;;;;;;5095338;28;20096;-77
2023/01/27 02:20:02;;;;;;;5.15;2.75;;;6.20;88.00;;;;;;5077751;28;20032;-77
2023/01/27 02:22:48;;;;;;;8.20;2.58;;;6.20;88.10;;;;;;5094786;28;20044;-77
2023/01/27 02:25:34;;;;;;;9.90;2.95;;;6.20;88.20;;;;;;5095272;28;20080;-77
2023/01/27 02:28:06;;;;;;;6.68;2.65;;;6.20;88.30;;;;;;5077475;28;20385;-77
2023/01/27 02:30:31;;;;;;;7.00;2.88;;;6.10;88.30;;;;;;5095182;28;20017;-77
2023/01/27 02:32:57;;;;;;;6.22;2.55;;;6.10;88.50;;;;;;5095119;28;20024;-77
2023/01/27 02:35:38;;;;;;;7.50;2.67;;;6.20;88.70;;;;;;5077246;28;20047;-77
2023/01/27 02:38:06;;;;;;;7.07;2.85;;;6.10;88.80;;;;;;5094968;28;20044;-77
2023/01/27 02:40:33;;;;;;;10.85;3.00;;;6.10;88.90;;;;;;5077183;28;20054;-77
2023/01/27 02:42:59;;;;;;;8.60;2.83;;;6.10;89.00;;;;;;5095039;28;20021;-77
2023/01/27 02:45:25;;;;;;;8.88;2.90;;;6.20;89.20;;;;;;5077270;28;20032;-77
2023/01/27 02:47:50;;;;;;;7.68;3.28;;;6.20;88.90;;;;;;5094796;28;20080;-77
2023/01/27 02:50:16;;;;;;;9.57;3.15;;;6.20;89.00;;;;;;5076982;28;20028;-77
2023/01/27 02:52:42;;;;;;;10.40;3.67;;;6.20;89.10;;;;;;5076970;28;20021;-77
2023/01/27 02:55:08;;;;;;;10.40;3.30;;;6.20;89.10;;;;;;5094687;28;20017;-77
2023/01/27 02:57:34;;;;;;;7.43;3.25;;;6.20;88.90;;;;;;5076962;28;20063;-77
2023/01/27 02:59:59;;;;;;;11.00;3.15;;;6.20;89.10;;;;;;5076772;28;20029;-77
2023/01/27 03:02:29;;;;;;;9.73;3.47;;;6.20;89.00;;;;;;5094496;28;20076;-77
2023/01/27 03:04:57;;;;;;;7.57;3.40;;;6.20;89.00;;;;;;5094425;28;20039;-77
2023/01/27 03:07:23;;;;;;;7.57;3.13;;;6.20;89.10;;;;;;5094414;28;20080;-77
2023/01/27 03:09:49;;;;;;;13.40;4.00;;;6.10;89.30;;;;;;5094284;28;20040;-77
2023/01/27 03:12:20;;;;;;;14.05;4.00;;;6.20;89.40;;;;;;5094275;28;20084;-77
2023/01/27 03:20:18;;;;;;;14.95;4.18;;;6.10;89.70;;;;;;5079483;28;20082;-77
2023/01/27 03:22:43;;;;;;;11.45;4.20;;;6.10;89.80;;;;;;5076505;28;20063;-77
2023/01/27 03:25:10;;;;;;;12.60;3.72;;;6.10;90.00;;;;;;5094074;28;20029;-77
2023/01/27 03:27:36;;;;;;;12.93;4.53;;;6.00;90.00;;;;;;5093968;28;20020;-77
2023/01/27 03:30:02;;;;;;;14.20;4.68;;;6.00;90.10;;;;;;5093992;28;20044;-77
2023/01/27 03:32:29;;;;;;;13.48;4.45;;;6.00;90.20;;;;;;5094006;28;20485;-77
2023/01/27 03:35:00;;;;;;;9.98;4.30;;;6.00;90.30;;;;;;5075395;28;20070;-77
2023/01/27 03:48:35;;;;;;;11.90;5.35;;;5.90;90.60;;;;;;5093786;28;20097;-77
2023/01/27 03:51:03;;;;;;;14.73;5.50;;;5.80;90.60;;;;;;5093631;28;20035;-77
2023/01/27 03:53:28;;;;;;;13.00;4.70;;;5.90;90.70;;;;;;5075937;28;20122;-77
2023/01/27 03:55:54;;;;;;;13.05;4.53;;;5.80;90.70;;;;;;5093585;28;20029;-77
2023/01/27 03:58:23;;;;;;;12.98;4.38;;;5.90;90.80;;;;;;5093460;28;20094;-77
2023/01/27 04:00:55;;;;;;;14.25;5.00;;;5.80;90.80;;;;;;5093528;28;20020;-77
2023/01/27 04:08:55;;;;;;;11.10;4.10;;;5.80;90.60;;;;;;5093501;28;20047;-77
2023/01/27 04:14:07;;;;;;;15.35;4.95;;;5.80;90.60;;;;;;5093639;28;20062;-77
2023/01/27 04:16:35;;;;;;;10.20;4.07;;;5.80;90.60;;;;;;5093311;28;20025;-77
2023/01/27 04:19:02;;;;;;;11.95;4.53;;;5.80;90.60;;;;;;5075866;28;20031;-77
2023/01/27 04:21:28;;;;;;;11.98;4.55;;;5.80;90.70;;;;;;5093301;28;20115;-77
2023/01/27 04:23:53;;;;;;;11.85;5.00;;;5.80;90.70;;;;;;5075430;28;20029;-77
2023/01/27 04:26:19;;;;;;;11.48;3.95;;;5.80;90.70;;;;;;5075582;28;20027;-77
2023/01/27 04:28:45;;;;;;;11.65;4.78;;;5.80;90.80;;;;;;5093213;28;20029;-77
2023/01/27 04:31:11;;;;;;;11.85;4.55;;;5.80;90.90;;;;;;5093235;28;20059;-77
2023/01/27 04:33:37;;;;;;;13.07;5.10;;;5.70;90.90;;;;;;5075351;28;20032;-77
2023/01/27 04:36:03;;;;;;;12.85;5.07;;;5.90;90.90;;;;;;5093067;28;20059;-77
2023/01/27 04:38:28;;;;;;;12.18;4.63;;;5.90;90.90;;;;;;5093081;28;20032;-77
2023/01/27 04:40:54;;;;;;;13.13;5.25;;;5.90;90.80;;;;;;5075429;28;20032;-77
2023/01/27 04:43:20;;;;;;;13.23;4.68;;;5.90;90.80;;;;;;5075667;28;20024;-77
2023/01/27 04:45:46;;;;;;;13.50;5.38;;;5.90;90.80;;;;;;5093813;28;20024;-77
2023/01/27 04:48:11;;;;;;;12.18;4.68;;;5.90;90.80;;;;;;5062721;28;20032;-77
2023/01/27 04:50:37;;;;;;;13.55;5.60;;;5.90;90.80;;;;;;5097033;28;20048;-77
2023/01/27 04:53:02;;;;;;;12.95;4.80;;;5.90;90.80;;;;;;5096999;28;20039;-77
2023/01/27 04:55:28;;;;;;;12.90;4.85;;;5.80;90.70;;;;;;5079194;28;20031;-77
2023/01/27 04:57:54;;;;;;;12.55;5.47;;;5.90;90.80;;;;;;5062549;28;20032;-77
2023/01/27 05:00:19;;;;;;;16.67;5.55;;;5.90;90.80;;;;;;5096951;28;20028;-77
2023/01/27 05:02:45;;;;;;;13.55;4.78;;;5.80;90.80;;;;;;5096547;28;20099;-77
2023/01/27 05:05:11;;;;;;;14.10;5.40;;;5.80;90.80;;;;;;5078967;28;20055;-77
2023/01/27 05:07:37;;;;;;;12.77;4.55;;;5.80;91.30;;;;;;5096721;28;20021;-77
2023/01/27 05:10:04;;;;;;;12.80;4.65;;;5.80;90.90;;;;;;5096651;28;20028;-77
2023/01/27 05:12:29;;;;;;;12.30;4.78;;;5.90;91.00;;;;;;5096585;28;20071;-77
2023/01/27 05:14:55;;;;;;;14.23;4.15;;;5.80;91.00;;;;;;5096544;28;20028;-77
2023/01/27 05:17:21;;;;;;;15.82;5.43;;;5.80;91.40;;;;;;5078925;28;20070;-77
2023/01/27 05:19:46;;;;;;;10.63;4.60;;;5.70;91.00;;;;;;5096408;28;20037;-77
2023/01/27 05:22:12;;;;;;;15.32;4.88;;;5.80;91.10;;;;;;5062166;28;20028;-77
2023/01/27 05:24:37;;;;;;;12.63;4.65;;;5.80;91.00;;;;;;5078690;28;20032;-77
2023/01/27 05:27:03;;;;;;;13.23;4.82;;;5.80;91.00;;;;;;5096360;28;20032;-77
2023/01/27 05:29:29;;;;;;;12.60;4.93;;;5.70;91.10;;;;;;5062128;28;20024;-77
2023/01/27 05:31:55;;;;;;;11.52;4.95;;;5.80;91.00;;;;;;5096203;28;20040;-77
2023/01/27 05:34:20;;;;;;;11.13;4.35;;;5.80;91.00;;;;;;5096224;28;20028;-77
2023/01/27 05:36:46;;;;;;;10.98;4.45;;;5.80;91.00;;;;;;5078258;28;20138;-77
2023/01/27 05:39:12;;;;;;;9.90;4.63;;;5.80;91.00;;;;;;5061809;28;20055;-77
2023/01/27 05:41:38;;;;;;;11.55;5.30;;;5.80;91.00;;;;;;5096059;28;20032;-77
2023/01/27 05:44:04;;;;;;;12.48;4.20;;;5.80;91.10;;;;;;5096081;28;20029;-77
2023/01/27 05:46:31;;;;;;;12.38;4.93;;;5.80;91.00;;;;;;5078417;28;20050;-77
2023/01/27 05:49:00;;;;;;;10.82;4.60;;;5.90;91.00;;;;;;5078293;28;20096;-77
2023/01/27 05:51:29;;;;;;;11.55;4.50;;;5.90;91.00;;;;;;5095892;28;20028;-77
2023/01/27 05:53:57;;;;;;;12.60;5.18;;;5.90;90.80;;;;;;5078071;28;20025;-77
2023/01/27 05:56:22;;;;;;;11.77;4.15;;;6.00;90.80;;;;;;5078545;28;20039;-77
2023/01/27 05:58:48;;;;;;;10.07;4.75;;;6.00;90.90;;;;;;5094732;28;20021;-77
2023/01/27 06:01:17;;;;;;;12.68;4.70;;;6.00;90.80;;;;;;5095745;28;20071;-77
2023/01/27 06:03:43;;;;;;;11.88;4.70;;;6.00;90.80;;;;;;5095660;28;20016;-76
2023/01/27 06:06:13;;;;;;;12.07;4.85;;;6.10;90.80;;;;;;5077833;28;20119;-77
2023/01/27 06:08:39;;;;;;;10.77;4.63;;;6.10;90.70;;;;;;5077820;28;20020;-76
2023/01/27 06:11:06;;;;;;;11.90;4.63;;;6.10;90.70;;;;;;5095538;28;20029;-76
2023/01/27 06:13:34;;;;;;;11.55;4.55;;;6.10;90.60;;;;;;5095522;28;20039;-76
2023/01/27 06:16:01;;;;;;;12.75;4.72;;;6.20;90.60;;;;;;5095454;28;20021;-76
2023/01/27 06:18:27;;;;;;;12.40;4.97;;;6.20;90.60;;;;;;5061237;28;20035;-77
2023/01/27 06:20:59;;;;;;;13.48;4.53;;;6.20;90.50;;;;;;5095337;28;20024;-77
2023/01/27 06:23:26;;;;;;;10.93;4.57;;;6.20;90.40;;;;;;5095352;28;20072;-77
2023/01/27 06:25:53;;;;;;;12.68;4.18;;;6.20;90.40;;;;;;5095246;28;20020;-77
2023/01/27 06:28:18;;;;;;;11.15;4.97;;;6.20;90.40;;;;;;5095221;28;20092;-78
2023/01/27 06:30:44;;;;;;;9.40;4.47;;;6.20;90.30;;;;;;5095149;28;20040;-77
2023/01/27 06:33:10;;;;;;;10.32;4.80;;;6.30;90.30;;;;;;5095120;28;20028;-78
2023/01/27 06:35:37;;;;;;;8.98;4.07;;;6.20;90.20;;;;;;5060594;28;20087;-77
2023/01/27 06:38:05;;;;;;;8.88;4.32;;;6.30;90.20;;;;;;5094978;28;20107;-77
2023/01/27 06:40:32;;;;;;;7.55;3.33;;;6.30;90.20;;;;;;5077272;28;20032;-78
2023/01/27 06:42:58;;;;;;;11.23;4.38;;;6.20;90.10;;;;;;5094900;28;20484;-77
2023/01/27 06:45:25;;;;;;;9.00;4.05;;;6.30;90.10;;;;;;5094879;28;20088;-77
2023/01/27 06:47:58;;;;;;;6.35;3.08;;;6.20;90.00;;;;;;5094781;28;20025;-77
2023/01/27 06:50:25;;;;;;;9.90;4.00;;;6.20;90.00;;;;;;5094724;28;20031;-77
2023/01/27 06:52:52;;;;;;;8.38;3.58;;;6.20;89.80;;;;;;5094729;28;20077;-77
2023/01/27 06:55:22;;;;;;;8.07;3.55;;;6.20;90.00;;;;;;5094657;28;20028;-77
2023/01/27 06:57:48;;;;;;;8.07;3.58;;;6.20;90.00;;;;;;5094756;28;20565;-77
2023/01/27 07:00:15;;;;;;;7.00;3.13;;;6.20;89.70;;;;;;5094509;28;20029;-77
2023/01/27 07:02:41;;;;;;;7.22;3.03;;;6.20;89.90;;;;;;5094469;28;20031;-77
2023/01/27 07:05:08;;;;;;;6.65;3.08;;;6.20;89.90;;;;;;5094456;28;20017;-77
2023/01/27 07:07:33;;;;;;;6.38;2.83;;;6.20;89.60;;;;;;5076876;28;20080;-76
2023/01/27 07:09:59;;;;;;;7.10;2.90;;;6.20;89.60;;;;;;5076628;28;20032;-77
2023/01/27 07:12:24;;;;;;;6.47;2.75;;;6.20;89.60;;;;;;5094451;28;20040;-77
2023/01/27 07:14:50;;;;;;;6.38;2.88;;;6.20;89.50;;;;;;5043601;28;20028;-76
2023/01/27 07:17:16;;;;;;;7.70;3.90;;;6.20;89.00;;;;;;5094208;28;20039;-77
2023/01/27 07:19:41;;;;;;;5.90;2.88;;;6.10;89.20;;;;;;5094089;28;20047;-76
2023/01/27 07:22:07;;;;;;;9.35;3.85;;;6.10;89.20;;;;;;5094118;28;20047;-76
2023/01/27 07:24:33;;;;;;;6.80;2.92;;;6.20;89.30;;;;;;5094080;28;20024;-77
2023/01/27 07:26:58;;;;;;;6.07;2.85;;;6.20;89.30;;;;;;5076426;28;20017;-77
2023/01/27 07:29:24;;;;;;;7.15;2.90;;;6.10;89.20;;;;;;5076402;28;20036;-77
2023/01/27 07:31:49;;;;;;;5.55;2.45;;;6.10;90.00;;;;;;5076392;28;20033;-77
2023/01/27 07:34:15;;;;;;;7.00;2.78;;;6.10;89.30;;;;;;5093932;28;20032;-77
2023/01/27 07:36:40;;;;;;;6.57;3.03;;;6.10;89.30;;;;;;5059582;28;20052;-77
2023/01/27 07:39:06;;;;;;;6.78;2.80;;;6.00;89.30;;;;;;5076078;28;20036;-77
2023/01/27 07:41:32;;;;;;;7.00;2.80;;;6.00;89.40;;;;;;5076173;28;20032;-77
2023/01/27 07:43:57;;;;;;;5.72;2.85;;;6.00;89.50;;;;;;5093725;28;20028;-77
2023/01/27 07:46:23;;;;;;;6.05;2.70;;;6.00;89.70;;;;;;5076043;28;20039;-77
2023/01/27 07:48:48;;;;;;;6.63;2.97;;;6.00;89.50;;;;;;5059385;28;20035;-77
2023/01/27 07:51:15;;;;;;;6.35;2.90;;;6.00;89.60;;;;;;5093643;28;20032;-77
2023/01/27 07:53:41;;;;;;;5.22;2.78;;;6.00;89.40;;;;;;5093624;28;20036;-77
2023/01/27 07:56:10;;;;;;;4.35;2.25;;;5.90;89.70;;;;;;5093606;28;20419;-77
2023/01/27 07:58:38;;;;;;;5.18;2.25;;;5.90;89.70;;;;;;5093449;28;20051;-77
2023/01/27 08:01:08;;;;;;;5.30;2.78;;;5.90;89.80;;;;;;5093533;28;20044;-76
2023/01/27 08:03:34;;;;;;;5.72;2.95;;;5.90;89.80;;;;;;5093680;28;20489;-76
2023/01/27 08:06:05;;;;;;;4.82;2.35;;;5.90;89.80;;;;;;5075769;28;20016;-76
2023/01/27 08:08:30;;;;;;;4.47;2.63;;;5.90;89.60;;;;;;5059308;28;20096;-76
2023/01/27 08:11:06;;;;;;;6.55;2.67;;;5.90;89.30;;;;;;5075717;28;20043;-76
2023/01/27 08:13:32;;;;;;;7.35;2.60;;;5.80;89.30;;;;;;5093568;28;20052;-76
2023/01/27 08:15:58;;;;;;;3.92;2.13;;;5.80;89.60;;;;;;5093335;28;20047;-76
2023/01/27 08:18:25;;;;;;;5.28;2.63;;;5.80;89.70;;;;;;5093364;28;20039;-76
2023/01/27 08:20:53;;;;;;;4.35;2.47;;;5.90;89.90;;;;;;5092833;28;20080;-76
2023/01/27 08:23:22;;;;;;;5.75;2.60;;;5.90;89.60;;;;;;5093260;28;20082;-77
2023/01/27 08:25:52;;;;;;;7.45;2.50;;;5.90;89.40;;;;;;5093252;28;20022;-77
2023/01/27 08:28:18;;;;;;;5.03;2.30;;;5.90;89.10;;;;;;5075503;28;20021;-77
2023/01/27 08:30:45;;;;;;;4.18;2.17;;;5.90;89.20;;;;;;5093121;28;20020;-76
2023/01/27 08:33:11;;;;;;;4.65;2.30;;;5.90;89.30;;;;;;5075474;28;20023;-76
2023/01/27 08:35:38;;;;;;;4.18;2.30;;;5.80;89.10;;;;;;5092965;28;20053;-76
2023/01/27 08:38:04;;;;;;;5.07;2.80;;;5.80;89.30;;;;;;5093104;28;20047;-76
2023/01/27 08:40:30;;;;;;;4.45;2.35;;;5.90;89.30;;;;;;5093112;28;20037;-76
2023/01/27 08:42:55;;;;;;;5.38;2.20;;;5.90;89.50;;;;;;5075404;28;20389;-76
2023/01/27 08:45:21;;;;;;;4.47;2.40;;;6.00;89.20;;;;;;5093039;28;20028;-76
2023/01/27 08:47:47;;;;;;;5.68;2.42;;;6.00;89.10;;;;;;5093055;28;20032;-76
2023/01/27 08:50:13;;;;;;;4.13;2.30;;;6.10;89.30;;;;;;5093020;28;20025;-76
2023/01/27 08:52:38;;;;;;;3.55;1.77;;;6.10;88.90;;;;;;5092986;28;20020;-76
2023/01/27 08:55:04;;;;;;;5.80;2.53;;;6.10;88.70;;;;;;5093011;28;20055;-76
2023/01/27 08:57:31;;;;;;;5.45;2.55;;;6.10;88.60;;;;;;5075290;28;20029;-76
2023/01/27 08:59:57;;;;;;;6.32;2.10;;;6.10;88.60;;;;;;5075048;28;20025;-76
2023/01/27 09:02:23;;;;;;;5.22;2.67;;;6.00;88.50;;;;;;5075344;28;20092;-76
2023/01/27 09:04:50;;;;;;;4.35;2.05;;;6.10;88.60;;;;;;5075412;28;20097;-76
2023/01/27 09:07:16;;;;;;;5.13;2.60;;;6.00;88.50;;;;;;5092809;28;20031;-77
2023/01/27 09:09:45;;;;;;;6.47;2.58;;;6.00;88.40;;;;;;5092773;28;20031;-76
2023/01/27 09:12:11;;;;;;;5.35;2.55;;;6.10;88.60;;;;;;5092776;28;20046;-76
2023/01/27 09:14:36;;;;;;;5.22;2.42;;;6.10;88.60;;;;;;5075179;28;20037;-77
2023/01/27 09:17:02;;;;;;;6.60;2.50;;;6.00;88.20;;;;;;5058461;28;20021;-76
2023/01/27 09:19:28;;;;;;;3.90;2.22;;;6.10;88.30;;;;;;5075152;28;20032;-77
2023/01/27 09:21:53;;;;;;;5.85;2.60;;;6.10;88.20;;;;;;5092716;28;20021;-76
2023/01/27 09:24:19;;;;;;;4.57;2.40;;;6.10;88.00;;;;;;5092693;28;20040;-76
2023/01/27 09:26:45;;;;;;;6.18;2.92;;;6.10;88.20;;;;;;5074868;28;20025;-76
2023/01/27 09:29:11;;;;;;;5.40;2.50;;;6.10;88.30;;;;;;5075004;28;20033;-76
2023/01/27 09:31:36;;;;;;;5.28;2.72;;;6.10;88.20;;;;;;5075124;28;20032;-76
2023/01/27 09:34:03;;;;;;;5.28;2.63;;;6.20;88.40;;;;;;5095147;28;20033;-77
2023/01/27 09:36:32;;;;;;;6.85;3.08;;;6.20;88.40;;;;;;5096020;28;20055;-76
2023/01/27 09:39:01;;;;;;;5.15;2.30;;;6.20;88.00;;;;;;5061620;28;20040;-76
2023/01/27 09:42:04;;;;;;;5.03;2.38;;;6.20;88.10;;;;;;5096116;28;20103;-76
2023/01/27 09:44:56;;;;;;;4.47;2.30;;;6.20;88.30;;;;;;5096052;28;20107;-76
2023/01/27 09:47:51;;;;;;;6.10;2.47;;;6.20;88.20;;;;;;5096056;28;20051;-76
2023/01/27 09:50:25;;;;;;;4.43;2.08;;;6.30;88.30;;;;;;5007285;28;20034;-76
2023/01/27 09:53:15;;;;;;;6.05;2.67;;;6.50;88.40;;;;;;5095971;28;20052;-76
2023/01/27 09:55:48;;;;;;;6.13;2.72;;;6.90;88.90;;;;;;5095941;28;20040;-76
2023/01/27 09:58:37;;;;;;;5.05;2.60;;;7.20;86.10;;;;;;5095766;28;20076;-76
2023/01/27 10:01:17;;;;;;;5.30;2.50;;;7.10;85.40;;;;;;5078027;28;20024;-77
2023/01/27 10:04:11;;;;;;;5.32;2.80;;;7.00;85.60;;;;;;5095910;28;20013;-77
2023/01/27 10:07:05;;;;;;;5.38;2.53;;;6.80;85.70;;;;;;5077931;28;20048;-76
2023/01/27 10:09:38;;;;;;;4.55;2.25;;;6.70;86.10;;;;;;5077852;28;20042;-76
2023/01/27 10:12:15;;;;;;;6.07;2.80;;;6.70;86.50;;;;;;5095744;28;20047;-76
2023/01/27 10:15:13;;;;;;;4.32;2.47;;;6.70;87.00;;;;;;5095645;28;20035;-76
2023/01/27 10:17:48;;;;;;;6.10;2.65;;;6.60;86.90;;;;;;5094804;28;20039;-76
2023/01/27 10:20:34;;;;;;;5.10;2.53;;;6.60;86.90;;;;;;5077599;28;20054;-76
2023/01/27 10:23:18;;;;;;;6.68;2.95;;;6.50;86.80;;;;;;5095428;28;20025;-76
2023/01/27 10:25:49;;;;;;;7.43;3.10;;;6.40;86.90;;;;;;5077724;28;20024;-76
2023/01/27 10:28:22;;;;;;;4.82;2.70;;;6.40;87.00;;;;;;5095231;28;20054;-76
2023/01/27 10:30:59;;;;;;;7.72;3.08;;;6.40;87.20;;;;;;5077460;28;20054;-76
2023/01/27 10:33:37;;;;;;;6.32;2.80;;;6.40;87.60;;;;;;5095198;28;20028;-76
2023/01/27 10:36:24;;;;;;;7.40;2.58;;;6.30;87.20;;;;;;5095048;28;20068;-76
2023/01/27 10:39:19;;;;;;;5.03;2.47;;;6.30;87.50;;;;;;5077356;28;20031;-76
2023/01/27 10:42:33;;;;;;;5.05;2.60;;;6.30;87.80;;;;;;5073369;28;20115;-77
2023/01/27 10:45:18;;;;;;;5.93;2.60;;;6.30;87.90;;;;;;5019128;28;20040;-77
2023/01/27 10:48:12;;;;;;;6.47;2.80;;;6.30;88.00;;;;;;5095055;28;20020;-76
2023/01/27 10:50:56;;;;;;;6.43;2.90;;;6.30;88.20;;;;;;5094841;28;20084;-76
2023/01/27 10:53:27;;;;;;;6.82;2.85;;;6.30;88.20;;;;;;5094949;28;20047;-76
2023/01/27 10:55:59;;;;;;;6.10;2.60;;;6.40;88.40;;;;;;5094731;28;20020;-76
2023/01/27 10:58:46;;;;;;;4.82;2.72;;;6.40;88.60;;;;;;5094548;28;20095;-76
2023/01/27 11:01:15;;;;;;;5.10;2.45;;;6.50;88.90;;;;;;5077129;28;20025;-76
2023/01/27 11:03:55;;;;;;;5.18;2.45;;;6.60;88.80;;;;;;5094536;28;20020;-76
2023/01/27 11:06:24;;;;;;;6.45;3.05;;;6.60;88.60;;;;;;5094544;28;20021;-76
2023/01/27 11:08:54;;;;;;;5.70;2.75;;;6.60;88.20;;;;;;5076665;28;20021;-76
2023/01/27 11:14:31;;;;;;;5.28;2.92;;;6.70;87.80;;;;;;5094606;28;20036;-76
2023/01/27 11:17:06;;;;;;;5.10;2.72;;;6.70;87.40;;;;;;5094271;28;20023;-77
2023/01/27 11:19:48;;;;;;;9.43;3.45;;;6.70;87.30;;;;;;5094211;28;20076;-76
2023/01/27 11:22:22;;;;;;;8.67;3.53;;;6.70;87.20;;;;;;5076755;28;20023;-76
2023/01/27 11:25:24;;;;;;;8.18;3.15;;;6.70;87.00;;;;;;5094097;28;20251;-76
2023/01/27 11:28:11;;;;;;;5.38;2.63;;;6.70;87.20;;;;;;5094064;28;20080;-76
2023/01/27 11:30:56;;;;;;;8.38;3.42;;;6.70;87.20;;;;;;5076279;28;20038;-76
2023/01/27 11:33:32;;;;;;;5.82;2.88;;;6.80;87.40;;;;;;5093997;28;20027;-76
2023/01/27 11:35:58;;;;;;;6.15;3.00;;;6.80;87.50;;;;;;5093752;28;20044;-76
2023/01/27 11:38:24;;;;;;;4.70;2.55;;;6.80;87.50;;;;;;5093808;28;20048;-76
2023/01/27 11:40:51;;;;;;;5.07;2.53;;;6.80;87.50;;;;;;5093810;28;20021;-76
2023/01/27 11:43:22;;;;;;;6.20;2.70;;;6.80;87.40;;;;;;5076156;28;20036;-77
2023/01/27 11:45:51;;;;;;;5.40;2.53;;;6.90;87.30;;;;;;5093857;28;20021;-76
2023/01/27 11:48:18;;;;;;;6.55;3.17;;;6.80;86.60;;;;;;5093721;28;20016;-76
2023/01/27 11:50:45;;;;;;;5.10;2.65;;;6.80;86.90;;;;;;5093677;28;20051;-76
2023/01/27 11:53:17;;;;;;;5.47;2.70;;;6.80;86.80;;;;;;5093662;28;20020;-77
2023/01/27 11:55:46;;;;;;;;;;;6.80;86.40;;;;;;5093496;28;20020;-77
2023/01/27 11:58:26;;;;;;;5.03;2.65;;;6.80;86.30;;;;;;5093546;28;19904;-76
2023/01/27 12:01:15;;;;;;;7.78;2.63;;;6.80;86.20;;;;;;5093576;28;20043;-76
2023/01/27 12:04:05;;;;;;;4.25;2.10;;;6.80;86.30;;;;;;5075843;28;20046;-77
2023/01/27 12:06:43;;;;;;;5.18;2.17;;;6.80;86.20;;;;;;5093518;28;20028;-77
2023/01/27 12:09:35;;;;;;;4.97;2.25;;;6.70;85.90;;;;;;5093507;28;20059;-77
2023/01/27 12:12:12;;;;;;;5.53;2.60;;;6.80;86.50;;;;;;5093396;28;20032;-77
2023/01/27 12:14:38;;;;;;;6.40;2.88;;;6.80;86.20;;;;;;5093371;28;20039;-77
2023/01/27 12:17:07;;;;;;;4.72;2.40;;;6.80;86.40;;;;;;5093380;28;20028;-77
2023/01/27 12:19:39;;;;;;;5.22;2.45;;;6.80;86.20;;;;;;5093294;28;20058;-77
2023/01/27 12:22:26;;;;;;;5.13;2.38;;;6.80;85.80;;;;;;5075686;28;20104;-77
2023/01/27 12:24:58;;;;;;;4.65;2.30;;;6.80;85.50;;;;;;5093448;28;20339;-77
2023/01/27 12:27:28;;;;;;;5.53;2.85;;;6.80;86.00;;;;;;5093414;28;20017;-77
2023/01/27 12:30:01;;;;;;;5.25;2.70;;;6.90;86.40;;;;;;5093302;28;20036;-77
2023/01/27 12:32:38;;;;;;;6.03;2.97;;;6.90;86.30;;;;;;5093227;28;20025;-77
2023/01/27 12:35:06;;;;;;;6.20;2.85;;;7.00;86.50;;;;;;5093275;28;20033;-77
2023/01/27 12:37:36;;;;;;;6.35;2.70;;;7.00;86.30;;;;;;5075385;28;20057;-77
2023/01/27 12:40:05;;;;;;;6.45;2.67;;;7.00;86.30;;;;;;5075340;28;20035;-77
2023/01/27 12:42:38;;;;;;;6.70;3.50;;;7.00;86.10;;;;;;5093085;28;20028;-77
2023/01/27 12:45:36;;;;;;;5.10;2.80;;;7.00;85.90;;;;;;5075528;28;20016;-77
2023/01/27 12:48:08;;;;;;;5.28;2.63;;;6.90;85.30;;;;;;5093120;28;20039;-77
2023/01/27 12:50:41;;;;;;;6.60;2.78;;;7.00;85.80;;;;;;5075460;28;20032;-77
2023/01/27 12:53:14;;;;;;;5.60;2.50;;;7.00;85.60;;;;;;5093040;28;20016;-77
2023/01/27 12:55:58;;;;;;;6.38;3.10;;;7.00;85.90;;;;;;5092981;28;20045;-77
2023/01/27 12:58:34;;;;;;;6.47;2.92;;;7.00;85.90;;;;;;5092886;28;20017;-77
2023/01/27 13:01:04;;;;;;;5.03;2.35;;;7.00;85.90;;;;;;5092957;28;20017;-77
2023/01/27 13:03:36;;;;;;;6.30;2.65;;;7.00;85.80;;;;;;5075177;28;20017;-77
2023/01/27 13:06:01;;;;;;;5.85;2.90;;;7.00;85.70;;;;;;5092951;28;20028;-77
2023/01/27 13:08:31;;;;;;;5.35;2.55;;;7.00;85.60;;;;;;5096237;28;20028;-77
2023/01/27 13:11:01;;;;;;;6.80;2.83;;;7.00;86.50;;;;;;5096769;28;20013;-77
2023/01/27 13:13:28;;;;;;;7.68;3.28;;;7.00;85.70;;;;;;5096657;28;20107;-77
2023/01/27 13:16:14;;;;;;;5.50;2.75;;;7.00;85.50;;;;;;5096620;28;20039;-77
2023/01/27 13:18:41;;;;;;;4.65;2.58;;;7.00;85.60;;;;;;5096519;28;20089;-77
2023/01/27 13:21:16;;;;;;;5.47;2.83;;;6.90;85.40;;;;;;5078726;28;20032;-77
2023/01/27 13:23:43;;;;;;;5.40;2.88;;;7.00;85.70;;;;;;5096498;28;20017;-77
2023/01/27 13:26:08;;;;;;;5.63;3.20;;;7.00;85.80;;;;;;5096457;28;20074;-77
2023/01/27 13:28:55;;;;;;;5.57;2.95;;;7.00;85.00;;;;;;5096340;28;20171;-77
2023/01/27 13:31:45;;;;;;;5.55;2.60;;;6.90;85.20;;;;;;5096516;28;20051;-77
2023/01/27 13:34:52;;;;;;;6.68;2.80;;;6.90;85.40;;;;;;5096481;28;20036;-77
2023/01/27 13:37:20;;;;;;;6.97;3.22;;;6.90;85.60;;;;;;5096081;28;20080;-77
2023/01/27 13:39:52;;;;;;;5.07;2.65;;;6.80;85.50;;;;;;5096086;28;20032;-77
2023/01/27 13:42:46;;;;;;;5.85;3.10;;;6.90;85.70;;;;;;5096164;28;20100;-77
2023/01/27 13:45:13;;;;;;;5.90;3.08;;;6.90;85.80;;;;;;5096223;28;20032;-77
2023/01/27 13:47:57;;;;;;;6.22;2.90;;;6.90;85.80;;;;;;5078403;28;20062;-77
2023/01/27 13:50:40;;;;;;;5.65;2.97;;;6.90;85.50;;;;;;5096164;28;20031;-77